sensor_id;sensor_type;location;lat;lon;timestamp;P1;durP1;ratioP1;P2;durP2;ratioP2
8040;SDS011;4063;48.140;10.250;2023-05-07T00:01:50;12.07;;;10.98;;
8040;SDS011;4063;48.140;10.250;2023-05-07T00:04:16;12.25;;;11.05;;
8040;SDS011;4063;48.140;10.250;2023-05-07T00:06:42;12.88;;;11.55;;
8040;SDS011;4063;48.140;10.250;2023-05-07T00:09:08;13.55;;;11.40;;
8040;SDS011;4063;48.140;10.250;2023-05-07T00:11:34;8.75;;;7.93;;
8040;SDS011;4063;48.140;10.250;2023-05-07T00:14:00;10.40;;;7.22;;
8040;SDS011;4063;48.140;10.250;2023-05-07T00:16:26;7.20;;;6.60;;
8040;SDS011;4063;48.140;10.250;2023-05-07T00:18:52;6.80;;;6.20;;
8040;SDS011;4063;48.140;10.250;2023-05-07T00:21:18;6.75;;;6.15;;
8040;SDS011;4063;48.140;10.250;2023-05-07T00:23:44;7.38;;;6.57;;
8040;SDS011;4063;48.140;10.250;2023-05-07T00:26:10;7.22;;;6.38;;
8040;SDS011;4063;48.140;10.250;2023-05-07T00:28:36;7.10;;;6.45;;
8040;SDS011;4063;48.140;10.250;2023-05-07T00:31:02;6.82;;;6.22;;
8040;SDS011;4063;48.140;10.250;2023-05-07T00:33:28;7.22;;;6.50;;
8040;SDS011;4063;48.140;10.250;2023-05-07T00:35:54;7.80;;;6.65;;
8040;SDS011;4063;48.140;10.250;2023-05-07T00:38:20;8.07;;;7.20;;
8040;SDS011;4063;48.140;10.250;2023-05-07T00:40:46;7.95;;;7.35;;
8040;SDS011;4063;48.140;10.250;2023-05-07T00:43:12;7.43;;;6.72;;
8040;SDS011;4063;48.140;10.250;2023-05-07T00:45:38;7.22;;;6.53;;
8040;SDS011;4063;48.140;10.250;2023-05-07T00:48:04;7.68;;;6.97;;
8040;SDS011;4063;48.140;10.250;2023-05-07T00:50:30;8.35;;;7.57;;
8040;SDS011;4063;48.140;10.250;2023-05-07T00:52:56;7.68;;;6.97;;
8040;SDS011;4063;48.140;10.250;2023-05-07T00:55:23;7.40;;;6.70;;
8040;SDS011;4063;48.140;10.250;2023-05-07T00:57:50;7.60;;;6.90;;
8040;SDS011;4063;48.140;10.250;2023-05-07T01:00:16;7.60;;;6.88;;
8040;SDS011;4063;48.140;10.250;2023-05-07T01:02:42;7.45;;;6.85;;
8040;SDS011;4063;48.140;10.250;2023-05-07T01:05:09;7.55;;;6.85;;
8040;SDS011;4063;48.140;10.250;2023-05-07T01:07:36;7.63;;;6.93;;
8040;SDS011;4063;48.140;10.250;2023-05-07T01:10:03;7.35;;;6.60;;
8040;SDS011;4063;48.140;10.250;2023-05-07T01:12:30;9.02;;;6.85;;
8040;SDS011;4063;48.140;10.250;2023-05-07T01:14:56;7.32;;;6.72;;
8040;SDS011;4063;48.140;10.250;2023-05-07T01:17:22;7.32;;;6.75;;
8040;SDS011;4063;48.140;10.250;2023-05-07T01:19:48;7.57;;;6.90;;
8040;SDS011;4063;48.140;10.250;2023-05-07T01:22:15;8.05;;;7.28;;
8040;SDS011;4063;48.140;10.250;2023-05-07T01:24:42;9.23;;;7.53;;
8040;SDS011;4063;48.140;10.250;2023-05-07T01:27:08;8.52;;;7.15;;
8040;SDS011;4063;48.140;10.250;2023-05-07T01:29:34;8.38;;;7.38;;
8040;SDS011;4063;48.140;10.250;2023-05-07T01:32:00;7.20;;;6.53;;
8040;SDS011;4063;48.140;10.250;2023-05-07T01:34:27;9.90;;;7.47;;
8040;SDS011;4063;48.140;10.250;2023-05-07T01:36:54;8.20;;;7.50;;
8040;SDS011;4063;48.140;10.250;2023-05-07T01:39:21;7.70;;;7.00;;
8040;SDS011;4063;48.140;10.250;2023-05-07T01:41:48;9.07;;;8.17;;
8040;SDS011;4063;48.140;10.250;2023-05-07T01:44:14;8.17;;;7.33;;
8040;SDS011;4063;48.140;10.250;2023-05-07T01:46:40;8.20;;;7.40;;
8040;SDS011;4063;48.140;10.250;2023-05-07T01:49:06;9.48;;;7.85;;
8040;SDS011;4063;48.140;10.250;2023-05-07T01:51:32;8.35;;;7.57;;
8040;SDS011;4063;48.140;10.250;2023-05-07T01:53:59;8.20;;;7.50;;
8040;SDS011;4063;48.140;10.250;2023-05-07T01:56:25;7.63;;;6.93;;
8040;SDS011;4063;48.140;10.250;2023-05-07T01:58:51;8.10;;;7.20;;
8040;SDS011;4063;48.140;10.250;2023-05-07T02:01:17;8.20;;;7.40;;
8040;SDS011;4063;48.140;10.250;2023-05-07T02:03:43;8.32;;;7.28;;
8040;SDS011;4063;48.140;10.250;2023-05-07T02:06:09;8.77;;;7.03;;
8040;SDS011;4063;48.140;10.250;2023-05-07T02:08:35;7.53;;;6.82;;
8040;SDS011;4063;48.140;10.250;2023-05-07T02:11:01;7.70;;;7.10;;
8040;SDS011;4063;48.140;10.250;2023-05-07T02:13:31;7.57;;;6.97;;
8040;SDS011;4063;48.140;10.250;2023-05-07T02:15:57;9.75;;;7.47;;
8040;SDS011;4063;48.140;10.250;2023-05-07T02:18:23;7.63;;;7.03;;
8040;SDS011;4063;48.140;10.250;2023-05-07T02:20:49;8.95;;;7.60;;
8040;SDS011;4063;48.140;10.250;2023-05-07T02:23:15;7.57;;;6.88;;
8040;SDS011;4063;48.140;10.250;2023-05-07T02:25:41;8.02;;;7.40;;
8040;SDS011;4063;48.140;10.250;2023-05-07T02:28:07;8.38;;;7.10;;
8040;SDS011;4063;48.140;10.250;2023-05-07T02:30:33;8.02;;;7.20;;
8040;SDS011;4063;48.140;10.250;2023-05-07T02:32:59;7.43;;;6.78;;
8040;SDS011;4063;48.140;10.250;2023-05-07T02:35:25;7.90;;;7.20;;
8040;SDS011;4063;48.140;10.250;2023-05-07T02:37:51;7.65;;;6.97;;
8040;SDS011;4063;48.140;10.250;2023-05-07T02:40:17;8.07;;;7.30;;
8040;SDS011;4063;48.140;10.250;2023-05-07T02:42:43;8.47;;;7.77;;
8040;SDS011;4063;48.140;10.250;2023-05-07T02:45:09;7.53;;;6.93;;
8040;SDS011;4063;48.140;10.250;2023-05-07T02:47:35;8.10;;;7.30;;
8040;SDS011;4063;48.140;10.250;2023-05-07T02:50:01;7.83;;;7.13;;
8040;SDS011;4063;48.140;10.250;2023-05-07T02:52:27;8.00;;;7.20;;
8040;SDS011;4063;48.140;10.250;2023-05-07T02:54:53;8.27;;;7.53;;
8040;SDS011;4063;48.140;10.250;2023-05-07T02:57:19;9.77;;;8.33;;
8040;SDS011;4063;48.140;10.250;2023-05-07T02:59:45;8.40;;;7.70;;
8040;SDS011;4063;48.140;10.250;2023-05-07T03:02:11;9.80;;;8.80;;
8040;SDS011;4063;48.140;10.250;2023-05-07T03:04:38;9.70;;;8.27;;
8040;SDS011;4063;48.140;10.250;2023-05-07T03:07:04;9.57;;;8.60;;
8040;SDS011;4063;48.140;10.250;2023-05-07T03:09:30;12.67;;;11.40;;
8040;SDS011;4063;48.140;10.250;2023-05-07T03:11:56;12.60;;;11.30;;
8040;SDS011;4063;48.140;10.250;2023-05-07T03:14:22;12.23;;;10.93;;
8040;SDS011;4063;48.140;10.250;2023-05-07T03:16:48;11.97;;;10.87;;
8040;SDS011;4063;48.140;10.250;2023-05-07T03:19:15;13.43;;;10.53;;
8040;SDS011;4063;48.140;10.250;2023-05-07T03:21:41;12.13;;;11.03;;
8040;SDS011;4063;48.140;10.250;2023-05-07T03:24:07;11.63;;;10.43;;
8040;SDS011;4063;48.140;10.250;2023-05-07T03:26:33;12.93;;;11.53;;
8040;SDS011;4063;48.140;10.250;2023-05-07T03:28:59;11.67;;;10.47;;
8040;SDS011;4063;48.140;10.250;2023-05-07T03:31:25;15.87;;;10.17;;
8040;SDS011;4063;48.140;10.250;2023-05-07T03:33:51;10.60;;;9.50;;
8040;SDS011;4063;48.140;10.250;2023-05-07T03:36:18;10.53;;;9.57;;
8040;SDS011;4063;48.140;10.250;2023-05-07T03:38:44;11.47;;;9.23;;
8040;SDS011;4063;48.140;10.250;2023-05-07T03:41:10;10.57;;;9.47;;
8040;SDS011;4063;48.140;10.250;2023-05-07T03:43:36;9.97;;;9.07;;
8040;SDS011;4063;48.140;10.250;2023-05-07T03:46:03;9.33;;;8.53;;
8040;SDS011;4063;48.140;10.250;2023-05-07T03:48:29;9.50;;;8.50;;
8040;SDS011;4063;48.140;10.250;2023-05-07T03:50:56;9.87;;;9.07;;
8040;SDS011;4063;48.140;10.250;2023-05-07T03:53:22;9.50;;;8.70;;
8040;SDS011;4063;48.140;10.250;2023-05-07T03:55:48;9.83;;;8.90;;
8040;SDS011;4063;48.140;10.250;2023-05-07T03:58:17;10.83;;;8.03;;
8040;SDS011;4063;48.140;10.250;2023-05-07T04:00:44;9.23;;;7.90;;
8040;SDS011;4063;48.140;10.250;2023-05-07T04:03:10;10.43;;;8.40;;
8040;SDS011;4063;48.140;10.250;2023-05-07T04:05:38;9.73;;;8.33;;
8040;SDS011;4063;48.140;10.250;2023-05-07T04:08:05;10.63;;;8.40;;
8040;SDS011;4063;48.140;10.250;2023-05-07T04:10:31;9.27;;;8.43;;
8040;SDS011;4063;48.140;10.250;2023-05-07T04:12:56;7.67;;;6.97;;
8040;SDS011;4063;48.140;10.250;2023-05-07T04:15:23;7.17;;;6.57;;
8040;SDS011;4063;48.140;10.250;2023-05-07T04:17:49;7.47;;;6.77;;
8040;SDS011;4063;48.140;10.250;2023-05-07T04:20:15;7.57;;;6.83;;
8040;SDS011;4063;48.140;10.250;2023-05-07T04:22:41;7.57;;;6.97;;
8040;SDS011;4063;48.140;10.250;2023-05-07T04:25:08;7.57;;;6.90;;
8040;SDS011;4063;48.140;10.250;2023-05-07T04:27:34;8.93;;;6.60;;
8040;SDS011;4063;48.140;10.250;2023-05-07T04:30:01;7.23;;;6.50;;
8040;SDS011;4063;48.140;10.250;2023-05-07T04:32:27;8.10;;;7.30;;
8040;SDS011;4063;48.140;10.250;2023-05-07T04:34:54;7.57;;;6.93;;
8040;SDS011;4063;48.140;10.250;2023-05-07T04:37:20;7.53;;;6.43;;
8040;SDS011;4063;48.140;10.250;2023-05-07T04:39:46;7.20;;;6.53;;
8040;SDS011;4063;48.140;10.250;2023-05-07T04:42:15;8.43;;;6.60;;
8040;SDS011;4063;48.140;10.250;2023-05-07T04:44:41;6.70;;;6.10;;
8040;SDS011;4063;48.140;10.250;2023-05-07T04:47:07;6.70;;;6.20;;
8040;SDS011;4063;48.140;10.250;2023-05-07T04:49:33;6.50;;;6.00;;
8040;SDS011;4063;48.140;10.250;2023-05-07T04:51:59;5.97;;;5.47;;
8040;SDS011;4063;48.140;10.250;2023-05-07T04:54:26;5.67;;;5.27;;
8040;SDS011;4063;48.140;10.250;2023-05-07T04:56:52;5.23;;;4.73;;
8040;SDS011;4063;48.140;10.250;2023-05-07T04:59:17;5.50;;;5.00;;
8040;SDS011;4063;48.140;10.250;2023-05-07T05:01:43;5.80;;;5.30;;
8040;SDS011;4063;48.140;10.250;2023-05-07T05:04:09;5.90;;;5.40;;
8040;SDS011;4063;48.140;10.250;2023-05-07T05:06:35;6.23;;;5.63;;
8040;SDS011;4063;48.140;10.250;2023-05-07T05:09:01;5.70;;;5.20;;
8040;SDS011;4063;48.140;10.250;2023-05-07T05:11:28;5.70;;;5.23;;
8040;SDS011;4063;48.140;10.250;2023-05-07T05:13:54;6.03;;;5.53;;
8040;SDS011;4063;48.140;10.250;2023-05-07T05:16:20;6.60;;;5.90;;
8040;SDS011;4063;48.140;10.250;2023-05-07T05:18:46;7.35;;;5.75;;
8040;SDS011;4063;48.140;10.250;2023-05-07T05:21:12;6.70;;;6.10;;
8040;SDS011;4063;48.140;10.250;2023-05-07T05:23:38;6.10;;;5.60;;
8040;SDS011;4063;48.140;10.250;2023-05-07T05:26:04;5.88;;;5.38;;
8040;SDS011;4063;48.140;10.250;2023-05-07T05:28:29;5.90;;;5.40;;
8040;SDS011;4063;48.140;10.250;2023-05-07T05:30:55;6.63;;;6.03;;
8040;SDS011;4063;48.140;10.250;2023-05-07T05:33:21;6.03;;;5.45;;
8040;SDS011;4063;48.140;10.250;2023-05-07T05:35:49;6.20;;;5.70;;
8040;SDS011;4063;48.140;10.250;2023-05-07T05:38:15;6.80;;;6.10;;
8040;SDS011;4063;48.140;10.250;2023-05-07T05:40:41;6.03;;;5.43;;
8040;SDS011;4063;48.140;10.250;2023-05-07T05:43:07;6.28;;;5.68;;
8040;SDS011;4063;48.140;10.250;2023-05-07T05:45:33;5.63;;;5.15;;
8040;SDS011;4063;48.140;10.250;2023-05-07T05:47:59;6.03;;;5.50;;
8040;SDS011;4063;48.140;10.250;2023-05-07T05:50:26;6.20;;;5.70;;
8040;SDS011;4063;48.140;10.250;2023-05-07T05:52:52;5.70;;;5.22;;
8040;SDS011;4063;48.140;10.250;2023-05-07T05:55:18;6.22;;;5.68;;
8040;SDS011;4063;48.140;10.250;2023-05-07T05:57:44;6.10;;;5.60;;
8040;SDS011;4063;48.140;10.250;2023-05-07T06:00:11;6.38;;;5.80;;
8040;SDS011;4063;48.140;10.250;2023-05-07T06:02:37;6.32;;;5.82;;
8040;SDS011;4063;48.140;10.250;2023-05-07T06:05:03;6.88;;;6.18;;
8040;SDS011;4063;48.140;10.250;2023-05-07T06:07:29;6.47;;;5.88;;
8040;SDS011;4063;48.140;10.250;2023-05-07T06:09:55;6.75;;;6.15;;
8040;SDS011;4063;48.140;10.250;2023-05-07T06:12:21;7.18;;;6.47;;
8040;SDS011;4063;48.140;10.250;2023-05-07T06:14:47;7.95;;;6.97;;
8040;SDS011;4063;48.140;10.250;2023-05-07T06:17:13;6.82;;;6.20;;
8040;SDS011;4063;48.140;10.250;2023-05-07T06:19:39;8.85;;;6.55;;
8040;SDS011;4063;48.140;10.250;2023-05-07T06:22:05;6.80;;;6.20;;
8040;SDS011;4063;48.140;10.250;2023-05-07T06:24:31;6.65;;;5.95;;
8040;SDS011;4063;48.140;10.250;2023-05-07T06:26:57;6.75;;;6.15;;
8040;SDS011;4063;48.140;10.250;2023-05-07T06:29:23;6.90;;;6.30;;
8040;SDS011;4063;48.140;10.250;2023-05-07T06:31:51;6.90;;;6.40;;
8040;SDS011;4063;48.140;10.250;2023-05-07T06:34:17;7.07;;;6.35;;
8040;SDS011;4063;48.140;10.250;2023-05-07T06:36:43;6.53;;;5.93;;
8040;SDS011;4063;48.140;10.250;2023-05-07T06:39:09;9.45;;;6.20;;
8040;SDS011;4063;48.140;10.250;2023-05-07T06:41:35;6.60;;;5.93;;
8040;SDS011;4063;48.140;10.250;2023-05-07T06:44:02;7.45;;;6.25;;
8040;SDS011;4063;48.140;10.250;2023-05-07T06:46:28;6.72;;;6.13;;
8040;SDS011;4063;48.140;10.250;2023-05-07T06:48:54;6.35;;;5.70;;
8040;SDS011;4063;48.140;10.250;2023-05-07T06:51:21;6.32;;;5.75;;
8040;SDS011;4063;48.140;10.250;2023-05-07T06:53:47;9.68;;;6.55;;
8040;SDS011;4063;48.140;10.250;2023-05-07T06:56:13;6.47;;;5.88;;
8040;SDS011;4063;48.140;10.250;2023-05-07T06:58:39;6.65;;;5.68;;
8040;SDS011;4063;48.140;10.250;2023-05-07T07:01:05;8.85;;;6.05;;
8040;SDS011;4063;48.140;10.250;2023-05-07T07:03:31;7.03;;;5.78;;
8040;SDS011;4063;48.140;10.250;2023-05-07T07:05:57;5.88;;;5.25;;
8040;SDS011;4063;48.140;10.250;2023-05-07T07:08:23;6.40;;;5.70;;
8040;SDS011;4063;48.140;10.250;2023-05-07T07:10:49;6.10;;;5.43;;
8040;SDS011;4063;48.140;10.250;2023-05-07T07:13:15;6.03;;;5.43;;
8040;SDS011;4063;48.140;10.250;2023-05-07T07:15:41;6.13;;;5.43;;
8040;SDS011;4063;48.140;10.250;2023-05-07T07:18:07;6.28;;;5.55;;
8040;SDS011;4063;48.140;10.250;2023-05-07T07:20:33;5.75;;;5.25;;
8040;SDS011;4063;48.140;10.250;2023-05-07T07:22:59;5.40;;;4.90;;
8040;SDS011;4063;48.140;10.250;2023-05-07T07:25:25;5.88;;;5.30;;
8040;SDS011;4063;48.140;10.250;2023-05-07T07:27:51;7.07;;;5.40;;
8040;SDS011;4063;48.140;10.250;2023-05-07T07:30:17;5.38;;;4.88;;
8040;SDS011;4063;48.140;10.250;2023-05-07T07:32:43;5.25;;;4.75;;
8040;SDS011;4063;48.140;10.250;2023-05-07T07:35:09;6.45;;;4.65;;
8040;SDS011;4063;48.140;10.250;2023-05-07T07:37:35;5.25;;;4.45;;
8040;SDS011;4063;48.140;10.250;2023-05-07T07:40:01;4.85;;;4.38;;
8040;SDS011;4063;48.140;10.250;2023-05-07T07:42:28;6.35;;;4.40;;
8040;SDS011;4063;48.140;10.250;2023-05-07T07:44:56;4.22;;;3.83;;
8040;SDS011;4063;48.140;10.250;2023-05-07T07:47:22;4.00;;;3.60;;
8040;SDS011;4063;48.140;10.250;2023-05-07T07:49:48;4.93;;;4.20;;
8040;SDS011;4063;48.140;10.250;2023-05-07T07:52:14;3.60;;;3.30;;
8040;SDS011;4063;48.140;10.250;2023-05-07T07:54:40;3.78;;;3.47;;
8040;SDS011;4063;48.140;10.250;2023-05-07T07:57:06;4.18;;;3.42;;
8040;SDS011;4063;48.140;10.250;2023-05-07T07:59:32;4.88;;;2.92;;
8040;SDS011;4063;48.140;10.250;2023-05-07T08:01:58;2.97;;;2.70;;
8040;SDS011;4063;48.140;10.250;2023-05-07T08:04:24;5.28;;;3.00;;
8040;SDS011;4063;48.140;10.250;2023-05-07T08:06:50;6.07;;;2.85;;
8040;SDS011;4063;48.140;10.250;2023-05-07T08:09:16;5.40;;;2.97;;
8040;SDS011;4063;48.140;10.250;2023-05-07T08:11:42;4.80;;;3.25;;
8040;SDS011;4063;48.140;10.250;2023-05-07T08:14:08;4.65;;;2.92;;
8040;SDS011;4063;48.140;10.250;2023-05-07T08:16:35;3.13;;;2.55;;
8040;SDS011;4063;48.140;10.250;2023-05-07T08:19:01;3.40;;;2.53;;
8040;SDS011;4063;48.140;10.250;2023-05-07T08:21:27;5.82;;;2.75;;
8040;SDS011;4063;48.140;10.250;2023-05-07T08:23:53;3.08;;;2.78;;
8040;SDS011;4063;48.140;10.250;2023-05-07T08:26:19;2.90;;;2.60;;
8040;SDS011;4063;48.140;10.250;2023-05-07T08:28:45;4.32;;;2.75;;
8040;SDS011;4063;48.140;10.250;2023-05-07T08:31:11;3.63;;;2.50;;
8040;SDS011;4063;48.140;10.250;2023-05-07T08:33:37;5.65;;;2.70;;
8040;SDS011;4063;48.140;10.250;2023-05-07T08:36:03;2.85;;;2.65;;
8040;SDS011;4063;48.140;10.250;2023-05-07T08:38:30;3.03;;;2.72;;
8040;SDS011;4063;48.140;10.250;2023-05-07T08:40:56;2.70;;;2.50;;
8040;SDS011;4063;48.140;10.250;2023-05-07T08:43:22;3.03;;;2.60;;
8040;SDS011;4063;48.140;10.250;2023-05-07T08:45:53;3.25;;;2.95;;
8040;SDS011;4063;48.140;10.250;2023-05-07T08:48:23;3.53;;;3.17;;
8040;SDS011;4063;48.140;10.250;2023-05-07T08:50:51;3.47;;;2.97;;
8040;SDS011;4063;48.140;10.250;2023-05-07T08:53:19;4.85;;;2.70;;
8040;SDS011;4063;48.140;10.250;2023-05-07T08:55:46;3.95;;;2.80;;
8040;SDS011;4063;48.140;10.250;2023-05-07T08:58:12;367.60;;;40.55;;
8040;SDS011;4063;48.140;10.250;2023-05-07T09:00:38;4.05;;;2.90;;
8040;SDS011;4063;48.140;10.250;2023-05-07T09:03:05;3.53;;;3.20;;
8040;SDS011;4063;48.140;10.250;2023-05-07T09:05:31;3.90;;;2.92;;
8040;SDS011;4063;48.140;10.250;2023-05-07T09:08:01;5.10;;;3.28;;
8040;SDS011;4063;48.140;10.250;2023-05-07T09:10:29;4.47;;;3.13;;
8040;SDS011;4063;48.140;10.250;2023-05-07T09:12:55;4.65;;;3.00;;
8040;SDS011;4063;48.140;10.250;2023-05-07T09:15:21;3.50;;;2.78;;
8040;SDS011;4063;48.140;10.250;2023-05-07T09:17:46;3.88;;;2.95;;
8040;SDS011;4063;48.140;10.250;2023-05-07T09:20:13;5.78;;;3.10;;
8040;SDS011;4063;48.140;10.250;2023-05-07T09:22:38;2.78;;;2.58;;
8040;SDS011;4063;48.140;10.250;2023-05-07T09:25:08;3.97;;;3.53;;
8040;SDS011;4063;48.140;10.250;2023-05-07T09:27:34;3.15;;;2.78;;
8040;SDS011;4063;48.140;10.250;2023-05-07T09:30:03;4.03;;;2.67;;
8040;SDS011;4063;48.140;10.250;2023-05-07T09:32:29;3.00;;;2.60;;
8040;SDS011;4063;48.140;10.250;2023-05-07T09:34:56;4.80;;;2.92;;
8040;SDS011;4063;48.140;10.250;2023-05-07T09:37:22;2.85;;;2.55;;
8040;SDS011;4063;48.140;10.250;2023-05-07T09:39:48;7.40;;;2.83;;
8040;SDS011;4063;48.140;10.250;2023-05-07T09:42:16;3.10;;;2.35;;
8040;SDS011;4063;48.140;10.250;2023-05-07T09:44:48;7.93;;;2.88;;
8040;SDS011;4063;48.140;10.250;2023-05-07T09:47:16;4.63;;;2.75;;
8040;SDS011;4063;48.140;10.250;2023-05-07T09:49:43;3.78;;;2.60;;
8040;SDS011;4063;48.140;10.250;2023-05-07T09:52:10;4.95;;;2.90;;
8040;SDS011;4063;48.140;10.250;2023-05-07T09:54:36;3.78;;;2.75;;
8040;SDS011;4063;48.140;10.250;2023-05-07T09:57:04;4.85;;;2.80;;
8040;SDS011;4063;48.140;10.250;2023-05-07T09:59:31;8.48;;;2.83;;
8040;SDS011;4063;48.140;10.250;2023-05-07T10:01:58;4.20;;;2.50;;
8040;SDS011;4063;48.140;10.250;2023-05-07T10:04:26;4.65;;;2.50;;
8040;SDS011;4063;48.140;10.250;2023-05-07T10:06:53;4.28;;;2.80;;
8040;SDS011;4063;48.140;10.250;2023-05-07T10:09:20;6.53;;;3.20;;
8040;SDS011;4063;48.140;10.250;2023-05-07T10:11:48;3.38;;;2.90;;
8040;SDS011;4063;48.140;10.250;2023-05-07T10:14:15;3.90;;;3.55;;
8040;SDS011;4063;48.140;10.250;2023-05-07T10:16:41;4.07;;;3.55;;
8040;SDS011;4063;48.140;10.250;2023-05-07T10:19:09;3.60;;;3.30;;
8040;SDS011;4063;48.140;10.250;2023-05-07T10:21:36;6.55;;;3.78;;
8040;SDS011;4063;48.140;10.250;2023-05-07T10:24:08;4.68;;;3.22;;
8040;SDS011;4063;48.140;10.250;2023-05-07T10:26:42;3.63;;;3.30;;
8040;SDS011;4063;48.140;10.250;2023-05-07T10:29:15;4.07;;;3.60;;
8040;SDS011;4063;48.140;10.250;2023-05-07T10:31:50;4.93;;;3.20;;
8040;SDS011;4063;48.140;10.250;2023-05-07T10:34:19;3.47;;;3.17;;
8040;SDS011;4063;48.140;10.250;2023-05-07T10:36:47;3.95;;;3.55;;
8040;SDS011;4063;48.140;10.250;2023-05-07T10:39:14;5.75;;;3.22;;
8040;SDS011;4063;48.140;10.250;2023-05-07T10:41:40;4.65;;;3.25;;
8040;SDS011;4063;48.140;10.250;2023-05-07T10:44:06;4.05;;;3.08;;
8040;SDS011;4063;48.140;10.250;2023-05-07T10:46:32;2.97;;;2.60;;
8040;SDS011;4063;48.140;10.250;2023-05-07T10:51:27;4.45;;;3.28;;
8040;SDS011;4063;48.140;10.250;2023-05-07T10:56:38;3.53;;;2.72;;
8040;SDS011;4063;48.140;10.250;2023-05-07T11:04:22;5.22;;;2.45;;
8040;SDS011;4063;48.140;10.250;2023-05-07T11:13:03;2.85;;;2.25;;
8040;SDS011;4063;48.140;10.250;2023-05-07T11:15:08;2.45;;;2.03;;
8040;SDS011;4063;48.140;10.250;2023-05-07T11:17:34;3.78;;;2.50;;
8040;SDS011;4063;48.140;10.250;2023-05-07T11:20:01;3.00;;;2.60;;
8040;SDS011;4063;48.140;10.250;2023-05-07T11:25:01;4.20;;;2.67;;
8040;SDS011;4063;48.140;10.250;2023-05-07T11:27:27;2.42;;;2.00;;
8040;SDS011;4063;48.140;10.250;2023-05-07T11:29:53;2.95;;;2.03;;
8040;SDS011;4063;48.140;10.250;2023-05-07T11:32:22;4.90;;;2.13;;
8040;SDS011;4063;48.140;10.250;2023-05-07T11:34:52;2.40;;;2.20;;
8040;SDS011;4063;48.140;10.250;2023-05-07T11:37:19;3.42;;;1.90;;
8040;SDS011;4063;48.140;10.250;2023-05-07T11:39:45;3.55;;;2.20;;
8040;SDS011;4063;48.140;10.250;2023-05-07T11:42:24;2.53;;;1.95;;
8040;SDS011;4063;48.140;10.250;2023-05-07T11:44:51;4.50;;;2.40;;
8040;SDS011;4063;48.140;10.250;2023-05-07T11:47:18;2.67;;;2.00;;
8040;SDS011;4063;48.140;10.250;2023-05-07T11:49:53;2.95;;;1.95;;
8040;SDS011;4063;48.140;10.250;2023-05-07T11:52:23;2.90;;;2.10;;
8040;SDS011;4063;48.140;10.250;2023-05-07T11:54:50;3.63;;;2.22;;
8040;SDS011;4063;48.140;10.250;2023-05-07T11:57:16;3.50;;;2.25;;
8040;SDS011;4063;48.140;10.250;2023-05-07T11:59:42;3.58;;;1.90;;
8040;SDS011;4063;48.140;10.250;2023-05-07T12:02:14;2.55;;;2.00;;
8040;SDS011;4063;48.140;10.250;2023-05-07T12:04:40;2.50;;;2.30;;
8040;SDS011;4063;48.140;10.250;2023-05-07T12:07:13;2.00;;;1.80;;
8040;SDS011;4063;48.140;10.250;2023-05-07T12:09:40;2.55;;;1.98;;
8040;SDS011;4063;48.140;10.250;2023-05-07T12:12:06;2.83;;;2.00;;
8040;SDS011;4063;48.140;10.250;2023-05-07T12:14:32;4.20;;;2.58;;
8040;SDS011;4063;48.140;10.250;2023-05-07T12:17:01;3.00;;;2.10;;
8040;SDS011;4063;48.140;10.250;2023-05-07T12:19:28;3.05;;;2.00;;
8040;SDS011;4063;48.140;10.250;2023-05-07T12:21:54;2.22;;;2.03;;
8040;SDS011;4063;48.140;10.250;2023-05-07T12:24:21;3.45;;;2.13;;
8040;SDS011;4063;48.140;10.250;2023-05-07T12:26:47;2.20;;;1.60;;
8040;SDS011;4063;48.140;10.250;2023-05-07T12:29:13;2.28;;;1.70;;
8040;SDS011;4063;48.140;10.250;2023-05-07T12:31:40;2.70;;;1.80;;
8040;SDS011;4063;48.140;10.250;2023-05-07T12:34:06;2.53;;;2.10;;
8040;SDS011;4063;48.140;10.250;2023-05-07T12:36:39;2.45;;;1.77;;
8040;SDS011;4063;48.140;10.250;2023-05-07T12:39:08;1.63;;;1.50;;
8040;SDS011;4063;48.140;10.250;2023-05-07T12:41:54;2.15;;;1.92;;
8040;SDS011;4063;48.140;10.250;2023-05-07T12:44:23;2.33;;;1.88;;
8040;SDS011;4063;48.140;10.250;2023-05-07T12:46:49;2.22;;;1.80;;
8040;SDS011;4063;48.140;10.250;2023-05-07T12:49:15;2.67;;;2.00;;
8040;SDS011;4063;48.140;10.250;2023-05-07T12:51:42;2.67;;;1.75;;
8040;SDS011;4063;48.140;10.250;2023-05-07T12:54:08;2.08;;;1.67;;
8040;SDS011;4063;48.140;10.250;2023-05-07T12:56:38;2.17;;;1.70;;
8040;SDS011;4063;48.140;10.250;2023-05-07T12:59:04;2.78;;;1.90;;
8040;SDS011;4063;48.140;10.250;2023-05-07T13:01:30;2.00;;;1.70;;
8040;SDS011;4063;48.140;10.250;2023-05-07T13:04:00;2.58;;;1.88;;
8040;SDS011;4063;48.140;10.250;2023-05-07T13:06:26;1.90;;;1.60;;
8040;SDS011;4063;48.140;10.250;2023-05-07T13:08:52;2.90;;;1.90;;
8040;SDS011;4063;48.140;10.250;2023-05-07T13:11:18;4.50;;;1.90;;
8040;SDS011;4063;48.140;10.250;2023-05-07T13:13:45;5.30;;;2.28;;
8040;SDS011;4063;48.140;10.250;2023-05-07T13:16:11;2.60;;;2.00;;
8040;SDS011;4063;48.140;10.250;2023-05-07T13:18:38;2.28;;;1.83;;
8040;SDS011;4063;48.140;10.250;2023-05-07T13:21:04;3.78;;;2.53;;
8040;SDS011;4063;48.140;10.250;2023-05-07T13:23:30;2.80;;;1.90;;
8040;SDS011;4063;48.140;10.250;2023-05-07T13:25:56;4.65;;;2.00;;
8040;SDS011;4063;48.140;10.250;2023-05-07T13:28:25;6.68;;;2.30;;
8040;SDS011;4063;48.140;10.250;2023-05-07T13:30:51;3.20;;;2.17;;
8040;SDS011;4063;48.140;10.250;2023-05-07T13:33:18;3.28;;;1.98;;
8040;SDS011;4063;48.140;10.250;2023-05-07T13:35:44;2.53;;;1.88;;
8040;SDS011;4063;48.140;10.250;2023-05-07T13:38:10;2.03;;;1.80;;
8040;SDS011;4063;48.140;10.250;2023-05-07T13:40:36;2.20;;;1.98;;
8040;SDS011;4063;48.140;10.250;2023-05-07T13:43:02;2.55;;;1.80;;
8040;SDS011;4063;48.140;10.250;2023-05-07T13:45:28;3.05;;;1.98;;
8040;SDS011;4063;48.140;10.250;2023-05-07T13:47:54;2.45;;;1.88;;
8040;SDS011;4063;48.140;10.250;2023-05-07T13:50:21;3.33;;;1.80;;
8040;SDS011;4063;48.140;10.250;2023-05-07T13:52:47;3.63;;;2.00;;
8040;SDS011;4063;48.140;10.250;2023-05-07T13:55:19;2.92;;;1.60;;
8040;SDS011;4063;48.140;10.250;2023-05-07T13:57:46;2.03;;;1.70;;
8040;SDS011;4063;48.140;10.250;2023-05-07T14:00:12;5.10;;;1.92;;
8040;SDS011;4063;48.140;10.250;2023-05-07T14:02:39;4.28;;;2.10;;
8040;SDS011;4063;48.140;10.250;2023-05-07T14:05:05;3.33;;;2.00;;
8040;SDS011;4063;48.140;10.250;2023-05-07T14:07:31;3.78;;;1.83;;
8040;SDS011;4063;48.140;10.250;2023-05-07T14:09:57;4.05;;;2.30;;
8040;SDS011;4063;48.140;10.250;2023-05-07T14:12:23;2.22;;;2.00;;
8040;SDS011;4063;48.140;10.250;2023-05-07T14:14:49;3.95;;;2.00;;
8040;SDS011;4063;48.140;10.250;2023-05-07T14:17:18;3.25;;;1.80;;
8040;SDS011;4063;48.140;10.250;2023-05-07T14:19:45;4.90;;;1.90;;
8040;SDS011;4063;48.140;10.250;2023-05-07T14:22:12;2.92;;;1.80;;
8040;SDS011;4063;48.140;10.250;2023-05-07T14:24:40;1.95;;;1.60;;
8040;SDS011;4063;48.140;10.250;2023-05-07T14:27:06;3.90;;;1.80;;
8040;SDS011;4063;48.140;10.250;2023-05-07T14:29:32;3.78;;;1.85;;
8040;SDS011;4063;48.140;10.250;2023-05-07T14:32:00;3.35;;;2.10;;
8040;SDS011;4063;48.140;10.250;2023-05-07T14:34:26;2.80;;;1.85;;
8040;SDS011;4063;48.140;10.250;2023-05-07T14:36:52;4.25;;;1.88;;
8040;SDS011;4063;48.140;10.250;2023-05-07T14:39:18;2.45;;;1.73;;
8040;SDS011;4063;48.140;10.250;2023-05-07T14:41:44;2.33;;;1.60;;
8040;SDS011;4063;48.140;10.250;2023-05-07T14:44:10;3.25;;;1.73;;
8040;SDS011;4063;48.140;10.250;2023-05-07T14:46:36;3.15;;;1.88;;
8040;SDS011;4063;48.140;10.250;2023-05-07T14:49:02;1.75;;;1.60;;
8040;SDS011;4063;48.140;10.250;2023-05-07T14:51:28;2.72;;;2.20;;
8040;SDS011;4063;48.140;10.250;2023-05-07T14:53:55;2.92;;;2.33;;
8040;SDS011;4063;48.140;10.250;2023-05-07T14:56:21;2.60;;;2.00;;
8040;SDS011;4063;48.140;10.250;2023-05-07T14:58:47;2.85;;;1.80;;
8040;SDS011;4063;48.140;10.250;2023-05-07T15:01:14;2.83;;;1.88;;
8040;SDS011;4063;48.140;10.250;2023-05-07T15:03:40;2.75;;;1.60;;
8040;SDS011;4063;48.140;10.250;2023-05-07T15:06:06;6.07;;;1.92;;
8040;SDS011;4063;48.140;10.250;2023-05-07T15:08:32;2.00;;;1.80;;
8040;SDS011;4063;48.140;10.250;2023-05-07T15:10:58;2.05;;;1.85;;
8040;SDS011;4063;48.140;10.250;2023-05-07T15:13:24;4.80;;;2.00;;
8040;SDS011;4063;48.140;10.250;2023-05-07T15:15:50;4.00;;;2.30;;